Terminal Aerodrome Forecast
Issued by NWS

Home | Current Version | Previous Version | Text Only | Print | Product List | Glossary Off
Versions: 1 2 3 4 5 6 7 8 9 10 11 12 13 14 15 16 17 18 19

000
FTUS43 KICT 082100 AAA
TAFRSL
TAF AMD
KRSL 082100Z 0821/0918 34013KT P6SM SKC
     FM082230 31007KT P6SM SKC
     FM090000 VRB03KT P6SM SKC
     FM090600 VRB03KT P6SM BKN070
     FM091400 13009KT P6SM OVC050=

USA.gov is the U.S. government's official web portal to all federal, state and local government web resources and services.